sensor_id;sensor_type;location;lat;lon;timestamp;temperature;humidity
20700;DHT22;10511;51.232;9.420;2022-10-23T00:00:15;12.30;99.90
20700;DHT22;10511;51.232;9.420;2022-10-23T00:02:42;12.30;99.90
20700;DHT22;10511;51.232;9.420;2022-10-23T00:05:09;12.30;99.90
20700;DHT22;10511;51.232;9.420;2022-10-23T00:07:36;12.30;99.90
20700;DHT22;10511;51.232;9.420;2022-10-23T00:10:04;12.20;99.90
20700;DHT22;10511;51.232;9.420;2022-10-23T00:12:32;12.20;99.90
20700;DHT22;10511;51.232;9.420;2022-10-23T00:14:59;12.20;99.90
20700;DHT22;10511;51.232;9.420;2022-10-23T00:17:26;12.20;99.90
20700;DHT22;10511;51.232;9.420;2022-10-23T00:19:57;12.20;99.90
20700;DHT22;10511;51.232;9.420;2022-10-23T00:22:24;12.30;99.90
20700;DHT22;10511;51.232;9.420;2022-10-23T00:24:51;12.30;99.90
20700;DHT22;10511;51.232;9.420;2022-10-23T00:27:18;12.40;99.90
20700;DHT22;10511;51.232;9.420;2022-10-23T00:29:46;12.30;99.90
20700;DHT22;10511;51.232;9.420;2022-10-23T00:32:13;12.30;99.90
20700;DHT22;10511;51.232;9.420;2022-10-23T00:34:40;12.20;99.90
20700;DHT22;10511;51.232;9.420;2022-10-23T00:37:07;12.20;99.90
20700;DHT22;10511;51.232;9.420;2022-10-23T00:39:34;12.20;99.90
20700;DHT22;10511;51.232;9.420;2022-10-23T00:42:01;12.20;99.90
20700;DHT22;10511;51.232;9.420;2022-10-23T00:47:34;12.40;99.90
20700;DHT22;10511;51.232;9.420;2022-10-23T00:50:01;12.40;99.90
20700;DHT22;10511;51.232;9.420;2022-10-23T00:52:28;12.40;99.90
20700;DHT22;10511;51.232;9.420;2022-10-23T00:54:56;12.30;99.90
20700;DHT22;10511;51.232;9.420;2022-10-23T00:57:24;12.30;99.90
20700;DHT22;10511;51.232;9.420;2022-10-23T00:59:51;12.20;99.90
20700;DHT22;10511;51.232;9.420;2022-10-23T01:02:18;11.90;99.90
20700;DHT22;10511;51.232;9.420;2022-10-23T01:04:46;11.70;99.90
20700;DHT22;10511;51.232;9.420;2022-10-23T01:07:17;11.70;99.90
20700;DHT22;10511;51.232;9.420;2022-10-23T01:09:54;11.80;99.90
20700;DHT22;10511;51.232;9.420;2022-10-23T01:12:27;11.90;99.90
20700;DHT22;10511;51.232;9.420;2022-10-23T01:15:03;12.00;99.90
20700;DHT22;10511;51.232;9.420;2022-10-23T01:17:36;12.00;99.90
20700;DHT22;10511;51.232;9.420;2022-10-23T01:20:18;12.00;99.90
20700;DHT22;10511;51.232;9.420;2022-10-23T01:23:08;12.10;99.90
20700;DHT22;10511;51.232;9.420;2022-10-23T01:25:51;12.10;99.90
20700;DHT22;10511;51.232;9.420;2022-10-23T01:28:25;12.10;99.90
20700;DHT22;10511;51.232;9.420;2022-10-23T01:30:57;12.10;99.90
20700;DHT22;10511;51.232;9.420;2022-10-23T01:33:27;12.10;99.90
20700;DHT22;10511;51.232;9.420;2022-10-23T01:36:00;11.90;99.90
20700;DHT22;10511;51.232;9.420;2022-10-23T01:38:37;11.70;99.90
20700;DHT22;10511;51.232;9.420;2022-10-23T01:41:09;11.80;99.90
20700;DHT22;10511;51.232;9.420;2022-10-23T01:43:42;11.80;99.90
20700;DHT22;10511;51.232;9.420;2022-10-23T01:46:13;11.80;99.90
20700;DHT22;10511;51.232;9.420;2022-10-23T01:48:45;11.90;99.90
20700;DHT22;10511;51.232;9.420;2022-10-23T01:51:13;11.90;99.90
20700;DHT22;10511;51.232;9.420;2022-10-23T01:53:42;11.90;99.90
20700;DHT22;10511;51.232;9.420;2022-10-23T01:56:12;11.90;99.90
20700;DHT22;10511;51.232;9.420;2022-10-23T01:58:45;11.90;99.90
20700;DHT22;10511;51.232;9.420;2022-10-23T02:01:14;11.80;99.90
20700;DHT22;10511;51.232;9.420;2022-10-23T02:03:43;11.80;99.90
20700;DHT22;10511;51.232;9.420;2022-10-23T02:06:11;11.70;99.90
20700;DHT22;10511;51.232;9.420;2022-10-23T02:08:38;11.60;99.90
20700;DHT22;10511;51.232;9.420;2022-10-23T02:11:07;11.60;99.90
20700;DHT22;10511;51.232;9.420;2022-10-23T02:13:39;11.60;99.90
20700;DHT22;10511;51.232;9.420;2022-10-23T02:16:18;11.70;99.90
20700;DHT22;10511;51.232;9.420;2022-10-23T02:18:53;11.70;99.90
20700;DHT22;10511;51.232;9.420;2022-10-23T02:21:26;11.60;99.90
20700;DHT22;10511;51.232;9.420;2022-10-23T02:24:00;11.50;99.90
20700;DHT22;10511;51.232;9.420;2022-10-23T02:26:32;11.40;99.90
20700;DHT22;10511;51.232;9.420;2022-10-23T02:29:04;11.30;99.90
20700;DHT22;10511;51.232;9.420;2022-10-23T02:31:34;11.20;99.90
20700;DHT22;10511;51.232;9.420;2022-10-23T02:34:01;11.20;99.90
20700;DHT22;10511;51.232;9.420;2022-10-23T02:36:28;11.30;99.90
20700;DHT22;10511;51.232;9.420;2022-10-23T02:38:55;11.30;99.90
20700;DHT22;10511;51.232;9.420;2022-10-23T02:41:30;11.30;99.90
20700;DHT22;10511;51.232;9.420;2022-10-23T02:44:08;11.10;99.90
20700;DHT22;10511;51.232;9.420;2022-10-23T02:46:44;11.00;99.90
20700;DHT22;10511;51.232;9.420;2022-10-23T02:49:18;11.00;99.90
20700;DHT22;10511;51.232;9.420;2022-10-23T02:51:55;10.90;99.90
20700;DHT22;10511;51.232;9.420;2022-10-23T02:54:31;11.00;99.90
20700;DHT22;10511;51.232;9.420;2022-10-23T02:57:03;11.10;99.90
20700;DHT22;10511;51.232;9.420;2022-10-23T02:59:36;10.90;99.90
20700;DHT22;10511;51.232;9.420;2022-10-23T03:02:11;11.00;99.90
20700;DHT22;10511;51.232;9.420;2022-10-23T03:04:42;11.00;99.90
20700;DHT22;10511;51.232;9.420;2022-10-23T03:07:10;11.00;99.90
20700;DHT22;10511;51.232;9.420;2022-10-23T03:09:37;11.00;99.90
20700;DHT22;10511;51.232;9.420;2022-10-23T03:12:04;10.90;99.90
20700;DHT22;10511;51.232;9.420;2022-10-23T03:14:31;10.90;99.90
20700;DHT22;10511;51.232;9.420;2022-10-23T03:16:58;10.90;99.90
20700;DHT22;10511;51.232;9.420;2022-10-23T03:19:27;10.90;99.90
20700;DHT22;10511;51.232;9.420;2022-10-23T03:21:54;10.90;99.90
20700;DHT22;10511;51.232;9.420;2022-10-23T03:24:21;10.80;99.90
20700;DHT22;10511;51.232;9.420;2022-10-23T03:26:48;10.60;99.90
20700;DHT22;10511;51.232;9.420;2022-10-23T03:29:14;10.70;99.90
20700;DHT22;10511;51.232;9.420;2022-10-23T03:31:41;10.50;99.90
20700;DHT22;10511;51.232;9.420;2022-10-23T03:34:08;10.20;99.90
20700;DHT22;10511;51.232;9.420;2022-10-23T03:36:37;10.00;99.90
20700;DHT22;10511;51.232;9.420;2022-10-23T03:39:04;9.80;99.90
20700;DHT22;10511;51.232;9.420;2022-10-23T03:41:31;9.70;99.90
20700;DHT22;10511;51.232;9.420;2022-10-23T03:43:58;9.70;99.90
20700;DHT22;10511;51.232;9.420;2022-10-23T03:46:25;9.80;99.90
20700;DHT22;10511;51.232;9.420;2022-10-23T03:48:52;10.00;99.90
20700;DHT22;10511;51.232;9.420;2022-10-23T03:51:20;10.10;99.90
20700;DHT22;10511;51.232;9.420;2022-10-23T03:53:48;10.20;99.90
20700;DHT22;10511;51.232;9.420;2022-10-23T03:56:15;10.30;99.90
20700;DHT22;10511;51.232;9.420;2022-10-23T03:58:42;10.40;99.90
20700;DHT22;10511;51.232;9.420;2022-10-23T04:01:09;10.30;99.90
20700;DHT22;10511;51.232;9.420;2022-10-23T04:03:36;10.30;99.90
20700;DHT22;10511;51.232;9.420;2022-10-23T04:06:03;10.40;99.90
20700;DHT22;10511;51.232;9.420;2022-10-23T04:08:30;10.40;99.90
20700;DHT22;10511;51.232;9.420;2022-10-23T04:10:59;10.50;99.90
20700;DHT22;10511;51.232;9.420;2022-10-23T04:13:26;10.60;99.90
20700;DHT22;10511;51.232;9.420;2022-10-23T04:15:53;10.60;99.90
20700;DHT22;10511;51.232;9.420;2022-10-23T04:18:21;10.80;99.90
20700;DHT22;10511;51.232;9.420;2022-10-23T04:20:48;10.90;99.90
20700;DHT22;10511;51.232;9.420;2022-10-23T04:23:15;10.80;99.90
20700;DHT22;10511;51.232;9.420;2022-10-23T04:25:42;10.90;99.90
20700;DHT22;10511;51.232;9.420;2022-10-23T04:28:11;10.70;99.90
20700;DHT22;10511;51.232;9.420;2022-10-23T04:30:38;10.50;99.90
20700;DHT22;10511;51.232;9.420;2022-10-23T04:33:06;10.50;99.90
20700;DHT22;10511;51.232;9.420;2022-10-23T04:35:33;10.30;99.90
20700;DHT22;10511;51.232;9.420;2022-10-23T04:38:00;10.20;99.90
20700;DHT22;10511;51.232;9.420;2022-10-23T04:40:27;10.00;99.90
20700;DHT22;10511;51.232;9.420;2022-10-23T04:42:54;9.80;99.90
20700;DHT22;10511;51.232;9.420;2022-10-23T04:45:22;9.70;99.90
20700;DHT22;10511;51.232;9.420;2022-10-23T04:47:49;9.70;99.90
20700;DHT22;10511;51.232;9.420;2022-10-23T04:50:18;9.80;99.90
20700;DHT22;10511;51.232;9.420;2022-10-23T04:52:45;10.00;99.90
20700;DHT22;10511;51.232;9.420;2022-10-23T04:55:12;10.20;99.90
20700;DHT22;10511;51.232;9.420;2022-10-23T04:57:39;10.20;99.90
20700;DHT22;10511;51.232;9.420;2022-10-23T05:00:08;10.30;99.90
20700;DHT22;10511;51.232;9.420;2022-10-23T05:02:37;10.30;99.90
20700;DHT22;10511;51.232;9.420;2022-10-23T05:05:06;10.20;99.90
20700;DHT22;10511;51.232;9.420;2022-10-23T05:07:33;10.40;99.90
20700;DHT22;10511;51.232;9.420;2022-10-23T05:10:00;10.40;99.90
20700;DHT22;10511;51.232;9.420;2022-10-23T05:12:28;10.50;99.90
20700;DHT22;10511;51.232;9.420;2022-10-23T05:14:55;10.60;99.90
20700;DHT22;10511;51.232;9.420;2022-10-23T05:17:24;10.70;99.90
20700;DHT22;10511;51.232;9.420;2022-10-23T05:19:55;10.50;99.90
20700;DHT22;10511;51.232;9.420;2022-10-23T05:22:25;10.50;99.90
20700;DHT22;10511;51.232;9.420;2022-10-23T05:24:54;10.30;99.90
20700;DHT22;10511;51.232;9.420;2022-10-23T05:27:20;10.30;99.90
20700;DHT22;10511;51.232;9.420;2022-10-23T05:29:47;10.40;99.90
20700;DHT22;10511;51.232;9.420;2022-10-23T05:32:15;10.60;99.90
20700;DHT22;10511;51.232;9.420;2022-10-23T05:34:42;10.70;99.90
20700;DHT22;10511;51.232;9.420;2022-10-23T05:37:13;10.80;99.90
20700;DHT22;10511;51.232;9.420;2022-10-23T05:39:41;10.80;99.90
20700;DHT22;10511;51.232;9.420;2022-10-23T05:42:09;10.60;99.90
20700;DHT22;10511;51.232;9.420;2022-10-23T05:44:36;10.60;99.90
20700;DHT22;10511;51.232;9.420;2022-10-23T05:47:03;10.50;99.90
20700;DHT22;10511;51.232;9.420;2022-10-23T05:49:30;10.40;99.90
20700;DHT22;10511;51.232;9.420;2022-10-23T05:51:57;10.20;99.90
20700;DHT22;10511;51.232;9.420;2022-10-23T05:54:26;10.20;99.90
20700;DHT22;10511;51.232;9.420;2022-10-23T05:56:54;10.20;99.90
20700;DHT22;10511;51.232;9.420;2022-10-23T05:59:22;10.30;99.90
20700;DHT22;10511;51.232;9.420;2022-10-23T06:01:49;10.30;99.90
20700;DHT22;10511;51.232;9.420;2022-10-23T06:04:16;10.40;99.90
20700;DHT22;10511;51.232;9.420;2022-10-23T06:06:44;10.40;99.90
20700;DHT22;10511;51.232;9.420;2022-10-23T06:09:12;10.10;99.90
20700;DHT22;10511;51.232;9.420;2022-10-23T06:11:40;10.00;99.90
20700;DHT22;10511;51.232;9.420;2022-10-23T06:14:07;10.00;99.90
20700;DHT22;10511;51.232;9.420;2022-10-23T06:16:34;10.10;99.90
20700;DHT22;10511;51.232;9.420;2022-10-23T06:19:01;10.20;99.90
20700;DHT22;10511;51.232;9.420;2022-10-23T06:21:28;10.30;99.90
20700;DHT22;10511;51.232;9.420;2022-10-23T06:23:55;10.30;99.90
20700;DHT22;10511;51.232;9.420;2022-10-23T06:26:22;10.30;99.90
20700;DHT22;10511;51.232;9.420;2022-10-23T06:28:51;10.20;99.90
20700;DHT22;10511;51.232;9.420;2022-10-23T06:31:18;10.00;99.90
20700;DHT22;10511;51.232;9.420;2022-10-23T06:33:48;10.00;99.90
20700;DHT22;10511;51.232;9.420;2022-10-23T06:36:15;10.10;99.90
20700;DHT22;10511;51.232;9.420;2022-10-23T06:38:42;10.20;99.90
20700;DHT22;10511;51.232;9.420;2022-10-23T06:41:12;10.20;99.90
20700;DHT22;10511;51.232;9.420;2022-10-23T06:43:39;10.30;99.90
20700;DHT22;10511;51.232;9.420;2022-10-23T06:46:08;10.30;99.90
20700;DHT22;10511;51.232;9.420;2022-10-23T06:48:35;10.20;99.90
20700;DHT22;10511;51.232;9.420;2022-10-23T06:51:04;10.10;99.90
20700;DHT22;10511;51.232;9.420;2022-10-23T06:53:32;9.90;99.90
20700;DHT22;10511;51.232;9.420;2022-10-23T06:56:01;9.80;99.90
20700;DHT22;10511;51.232;9.420;2022-10-23T06:58:28;9.70;99.90
20700;DHT22;10511;51.232;9.420;2022-10-23T07:00:55;9.80;99.90
20700;DHT22;10511;51.232;9.420;2022-10-23T07:03:27;9.70;99.90
20700;DHT22;10511;51.232;9.420;2022-10-23T07:05:54;9.70;99.90
20700;DHT22;10511;51.232;9.420;2022-10-23T07:08:21;9.70;99.90
20700;DHT22;10511;51.232;9.420;2022-10-23T07:10:48;9.70;99.90
20700;DHT22;10511;51.232;9.420;2022-10-23T07:13:15;9.80;99.90
20700;DHT22;10511;51.232;9.420;2022-10-23T07:15:42;10.00;99.90
20700;DHT22;10511;51.232;9.420;2022-10-23T07:18:09;10.20;99.90
20700;DHT22;10511;51.232;9.420;2022-10-23T07:20:40;10.30;99.90
20700;DHT22;10511;51.232;9.420;2022-10-23T07:23:08;10.40;99.90
20700;DHT22;10511;51.232;9.420;2022-10-23T07:25:37;10.40;99.90
20700;DHT22;10511;51.232;9.420;2022-10-23T07:28:04;10.40;99.90
20700;DHT22;10511;51.232;9.420;2022-10-23T07:30:31;10.50;99.90
20700;DHT22;10511;51.232;9.420;2022-10-23T07:32:58;10.60;99.90
20700;DHT22;10511;51.232;9.420;2022-10-23T07:35:25;10.70;99.90
20700;DHT22;10511;51.232;9.420;2022-10-23T07:37:53;10.80;99.90
20700;DHT22;10511;51.232;9.420;2022-10-23T07:40:20;10.90;99.90
20700;DHT22;10511;51.232;9.420;2022-10-23T07:42:47;10.90;99.90
20700;DHT22;10511;51.232;9.420;2022-10-23T07:45:14;11.00;99.90
20700;DHT22;10511;51.232;9.420;2022-10-23T07:47:41;11.00;99.90
20700;DHT22;10511;51.232;9.420;2022-10-23T07:50:08;11.00;99.90
20700;DHT22;10511;51.232;9.420;2022-10-23T07:52:35;11.20;99.90
20700;DHT22;10511;51.232;9.420;2022-10-23T07:55:04;11.20;99.90
20700;DHT22;10511;51.232;9.420;2022-10-23T07:57:31;11.20;99.90
20700;DHT22;10511;51.232;9.420;2022-10-23T07:59:58;11.20;99.90
20700;DHT22;10511;51.232;9.420;2022-10-23T08:02:25;11.30;99.90
20700;DHT22;10511;51.232;9.420;2022-10-23T08:04:52;11.40;99.90
20700;DHT22;10511;51.232;9.420;2022-10-23T08:07:19;11.40;99.90
20700;DHT22;10511;51.232;9.420;2022-10-23T08:09:46;11.50;99.90
20700;DHT22;10511;51.232;9.420;2022-10-23T08:12:14;11.60;99.90
20700;DHT22;10511;51.232;9.420;2022-10-23T08:14:42;11.70;99.90
20700;DHT22;10511;51.232;9.420;2022-10-23T08:17:09;11.70;99.90
20700;DHT22;10511;51.232;9.420;2022-10-23T08:19:36;11.80;99.90
20700;DHT22;10511;51.232;9.420;2022-10-23T08:22:03;11.80;99.90
20700;DHT22;10511;51.232;9.420;2022-10-23T08:24:30;11.90;99.90
20700;DHT22;10511;51.232;9.420;2022-10-23T08:26:57;12.00;99.90
20700;DHT22;10511;51.232;9.420;2022-10-23T08:29:26;12.10;99.90
20700;DHT22;10511;51.232;9.420;2022-10-23T08:31:53;12.10;99.90
20700;DHT22;10511;51.232;9.420;2022-10-23T08:34:22;12.10;99.90
20700;DHT22;10511;51.232;9.420;2022-10-23T08:36:49;12.20;99.90
20700;DHT22;10511;51.232;9.420;2022-10-23T08:39:16;12.20;99.90
20700;DHT22;10511;51.232;9.420;2022-10-23T08:41:48;12.30;99.90
20700;DHT22;10511;51.232;9.420;2022-10-23T08:44:21;12.30;99.90
20700;DHT22;10511;51.232;9.420;2022-10-23T08:46:58;12.40;99.90
20700;DHT22;10511;51.232;9.420;2022-10-23T08:49:35;12.60;99.90
20700;DHT22;10511;51.232;9.420;2022-10-23T08:52:11;12.70;99.90
20700;DHT22;10511;51.232;9.420;2022-10-23T08:54:48;12.70;99.90
20700;DHT22;10511;51.232;9.420;2022-10-23T08:57:32;12.80;99.90
20700;DHT22;10511;51.232;9.420;2022-10-23T09:00:04;12.90;99.90
20700;DHT22;10511;51.232;9.420;2022-10-23T09:02:39;13.00;99.90
20700;DHT22;10511;51.232;9.420;2022-10-23T09:05:14;13.20;99.90
20700;DHT22;10511;51.232;9.420;2022-10-23T09:07:54;13.30;99.90
20700;DHT22;10511;51.232;9.420;2022-10-23T09:10:44;13.40;99.90
20700;DHT22;10511;51.232;9.420;2022-10-23T09:16:14;13.70;99.90
20700;DHT22;10511;51.232;9.420;2022-10-23T09:18:46;13.80;99.90
20700;DHT22;10511;51.232;9.420;2022-10-23T09:21:14;13.90;99.90
20700;DHT22;10511;51.232;9.420;2022-10-23T09:23:41;14.00;99.90
20700;DHT22;10511;51.232;9.420;2022-10-23T09:26:13;14.20;99.90
20700;DHT22;10511;51.232;9.420;2022-10-23T09:28:45;14.30;99.90
20700;DHT22;10511;51.232;9.420;2022-10-23T09:31:13;14.50;99.90
20700;DHT22;10511;51.232;9.420;2022-10-23T09:33:40;14.60;99.90
20700;DHT22;10511;51.232;9.420;2022-10-23T09:36:18;14.60;99.90
20700;DHT22;10511;51.232;9.420;2022-10-23T09:38:48;14.60;99.90
20700;DHT22;10511;51.232;9.420;2022-10-23T09:41:18;14.60;99.90
20700;DHT22;10511;51.232;9.420;2022-10-23T09:43:46;14.70;99.90
20700;DHT22;10511;51.232;9.420;2022-10-23T09:46:13;14.80;99.90
20700;DHT22;10511;51.232;9.420;2022-10-23T09:48:40;14.80;99.90
20700;DHT22;10511;51.232;9.420;2022-10-23T09:51:17;14.80;99.90
20700;DHT22;10511;51.232;9.420;2022-10-23T09:53:48;14.90;99.90
20700;DHT22;10511;51.232;9.420;2022-10-23T09:56:25;14.90;99.90
20700;DHT22;10511;51.232;9.420;2022-10-23T09:58:55;14.90;99.90
20700;DHT22;10511;51.232;9.420;2022-10-23T10:01:24;15.00;99.90
20700;DHT22;10511;51.232;9.420;2022-10-23T10:03:52;15.00;99.90
20700;DHT22;10511;51.232;9.420;2022-10-23T10:06:25;15.00;99.90
20700;DHT22;10511;51.232;9.420;2022-10-23T10:08:55;15.00;99.90
20700;DHT22;10511;51.232;9.420;2022-10-23T10:11:27;15.00;99.90
20700;DHT22;10511;51.232;9.420;2022-10-23T10:14:05;15.00;99.90
20700;DHT22;10511;51.232;9.420;2022-10-23T10:16:41;15.00;99.90
20700;DHT22;10511;51.232;9.420;2022-10-23T10:19:17;15.00;99.90
20700;DHT22;10511;51.232;9.420;2022-10-23T10:21:54;15.10;99.90
20700;DHT22;10511;51.232;9.420;2022-10-23T10:24:29;15.20;99.90
20700;DHT22;10511;51.232;9.420;2022-10-23T10:27:01;15.30;99.90
20700;DHT22;10511;51.232;9.420;2022-10-23T10:29:49;15.30;99.90
20700;DHT22;10511;51.232;9.420;2022-10-23T10:32:28;15.30;99.90
20700;DHT22;10511;51.232;9.420;2022-10-23T10:35:04;15.30;99.90
20700;DHT22;10511;51.232;9.420;2022-10-23T10:37:44;15.30;99.90
20700;DHT22;10511;51.232;9.420;2022-10-23T10:40:18;15.30;99.90
20700;DHT22;10511;51.232;9.420;2022-10-23T10:43:01;15.40;99.90
20700;DHT22;10511;51.232;9.420;2022-10-23T10:45:33;15.40;99.90
20700;DHT22;10511;51.232;9.420;2022-10-23T10:48:20;15.50;99.90
20700;DHT22;10511;51.232;9.420;2022-10-23T10:50:51;15.60;99.90
20700;DHT22;10511;51.232;9.420;2022-10-23T10:53:26;15.60;99.90
20700;DHT22;10511;51.232;9.420;2022-10-23T10:55:57;15.50;99.90
20700;DHT22;10511;51.232;9.420;2022-10-23T10:58:30;15.60;99.90
20700;DHT22;10511;51.232;9.420;2022-10-23T11:01:04;15.60;99.90
20700;DHT22;10511;51.232;9.420;2022-10-23T11:03:37;15.70;99.90
20700;DHT22;10511;51.232;9.420;2022-10-23T11:06:11;15.80;99.90
20700;DHT22;10511;51.232;9.420;2022-10-23T11:08:41;15.80;99.90
20700;DHT22;10511;51.232;9.420;2022-10-23T11:11:12;15.80;99.90
20700;DHT22;10511;51.232;9.420;2022-10-23T11:13:42;15.80;99.90
20700;DHT22;10511;51.232;9.420;2022-10-23T11:16:12;15.70;99.90
20700;DHT22;10511;51.232;9.420;2022-10-23T11:18:41;15.60;99.90
20700;DHT22;10511;51.232;9.420;2022-10-23T11:21:26;15.70;99.90
20700;DHT22;10511;51.232;9.420;2022-10-23T11:27:12;15.50;99.90
20700;DHT22;10511;51.232;9.420;2022-10-23T11:29:55;15.50;99.90
20700;DHT22;10511;51.232;9.420;2022-10-23T11:32:41;15.60;99.90
20700;DHT22;10511;51.232;9.420;2022-10-23T11:35:23;15.60;99.90
20700;DHT22;10511;51.232;9.420;2022-10-23T11:38:00;15.60;99.90
20700;DHT22;10511;51.232;9.420;2022-10-23T11:40:35;15.60;99.90
20700;DHT22;10511;51.232;9.420;2022-10-23T11:43:02;15.70;99.90
20700;DHT22;10511;51.232;9.420;2022-10-23T11:45:34;15.70;99.90
20700;DHT22;10511;51.232;9.420;2022-10-23T11:48:03;15.80;99.90
20700;DHT22;10511;51.232;9.420;2022-10-23T11:50:32;15.90;99.90
20700;DHT22;10511;51.232;9.420;2022-10-23T11:53:04;15.90;99.90
20700;DHT22;10511;51.232;9.420;2022-10-23T11:55:37;15.80;99.90
20700;DHT22;10511;51.232;9.420;2022-10-23T11:58:41;15.80;99.90
20700;DHT22;10511;51.232;9.420;2022-10-23T12:01:32;15.80;99.90
20700;DHT22;10511;51.232;9.420;2022-10-23T12:04:04;15.80;99.90
20700;DHT22;10511;51.232;9.420;2022-10-23T12:06:38;15.80;99.90
20700;DHT22;10511;51.232;9.420;2022-10-23T12:09:17;15.70;99.90
20700;DHT22;10511;51.232;9.420;2022-10-23T12:12:01;15.80;99.90
20700;DHT22;10511;51.232;9.420;2022-10-23T12:14:31;15.80;99.90
20700;DHT22;10511;51.232;9.420;2022-10-23T12:16:58;15.80;99.90
20700;DHT22;10511;51.232;9.420;2022-10-23T12:19:27;15.70;99.90
20700;DHT22;10511;51.232;9.420;2022-10-23T12:21:58;15.80;99.90
20700;DHT22;10511;51.232;9.420;2022-10-23T12:27:29;15.80;99.90
20700;DHT22;10511;51.232;9.420;2022-10-23T12:30:13;15.90;99.90
20700;DHT22;10511;51.232;9.420;2022-10-23T12:36:03;15.90;99.90
20700;DHT22;10511;51.232;9.420;2022-10-23T12:38:32;15.80;99.90
20700;DHT22;10511;51.232;9.420;2022-10-23T12:41:10;15.80;99.90
20700;DHT22;10511;51.232;9.420;2022-10-23T12:43:42;15.80;99.90
20700;DHT22;10511;51.232;9.420;2022-10-23T12:46:27;15.80;99.90
20700;DHT22;10511;51.232;9.420;2022-10-23T12:48:55;15.80;99.90
20700;DHT22;10511;51.232;9.420;2022-10-23T12:51:24;15.80;99.90
20700;DHT22;10511;51.232;9.420;2022-10-23T12:53:51;15.90;99.90
20700;DHT22;10511;51.232;9.420;2022-10-23T12:56:18;15.90;99.90
20700;DHT22;10511;51.232;9.420;2022-10-23T12:58:49;15.90;99.90
20700;DHT22;10511;51.232;9.420;2022-10-23T13:01:25;15.80;99.90
20700;DHT22;10511;51.232;9.420;2022-10-23T13:03:58;15.60;99.90
20700;DHT22;10511;51.232;9.420;2022-10-23T13:06:28;15.60;99.90
20700;DHT22;10511;51.232;9.420;2022-10-23T13:08:55;15.50;99.90
20700;DHT22;10511;51.232;9.420;2022-10-23T13:11:23;15.50;99.90
20700;DHT22;10511;51.232;9.420;2022-10-23T13:13:52;15.70;99.90
20700;DHT22;10511;51.232;9.420;2022-10-23T13:16:21;15.90;99.90
20700;DHT22;10511;51.232;9.420;2022-10-23T13:18:48;16.00;99.90
20700;DHT22;10511;51.232;9.420;2022-10-23T13:21:19;16.00;99.90
20700;DHT22;10511;51.232;9.420;2022-10-23T13:23:46;16.10;99.90
20700;DHT22;10511;51.232;9.420;2022-10-23T13:26:24;16.20;99.90
20700;DHT22;10511;51.232;9.420;2022-10-23T13:28:53;16.20;99.90
20700;DHT22;10511;51.232;9.420;2022-10-23T13:31:29;16.20;99.90
20700;DHT22;10511;51.232;9.420;2022-10-23T13:34:21;16.30;99.90
20700;DHT22;10511;51.232;9.420;2022-10-23T13:36:52;16.30;99.90
20700;DHT22;10511;51.232;9.420;2022-10-23T13:39:22;16.40;99.90
20700;DHT22;10511;51.232;9.420;2022-10-23T13:41:50;16.50;99.90
20700;DHT22;10511;51.232;9.420;2022-10-23T13:44:20;16.50;99.90
20700;DHT22;10511;51.232;9.420;2022-10-23T13:46:48;16.50;99.90
20700;DHT22;10511;51.232;9.420;2022-10-23T13:49:17;16.50;99.90
20700;DHT22;10511;51.232;9.420;2022-10-23T13:51:47;16.50;99.90
20700;DHT22;10511;51.232;9.420;2022-10-23T13:54:16;16.60;99.90
20700;DHT22;10511;51.232;9.420;2022-10-23T13:56:44;16.60;99.90
20700;DHT22;10511;51.232;9.420;2022-10-23T13:59:11;16.50;99.90
20700;DHT22;10511;51.232;9.420;2022-10-23T14:01:40;16.60;99.90
20700;DHT22;10511;51.232;9.420;2022-10-23T14:04:07;16.60;99.90
20700;DHT22;10511;51.232;9.420;2022-10-23T14:06:36;16.70;99.90
20700;DHT22;10511;51.232;9.420;2022-10-23T14:09:04;16.80;99.90
20700;DHT22;10511;51.232;9.420;2022-10-23T14:11:32;16.80;99.90
20700;DHT22;10511;51.232;9.420;2022-10-23T14:13:59;16.70;99.90
20700;DHT22;10511;51.232;9.420;2022-10-23T14:16:27;16.90;99.90
20700;DHT22;10511;51.232;9.420;2022-10-23T14:18:55;16.90;99.90
20700;DHT22;10511;51.232;9.420;2022-10-23T14:21:25;16.90;99.90
20700;DHT22;10511;51.232;9.420;2022-10-23T14:23:53;16.90;99.90
20700;DHT22;10511;51.232;9.420;2022-10-23T14:26:22;16.90;99.90
20700;DHT22;10511;51.232;9.420;2022-10-23T14:28:51;17.00;99.90
20700;DHT22;10511;51.232;9.420;2022-10-23T14:31:20;17.00;99.90
20700;DHT22;10511;51.232;9.420;2022-10-23T14:33:51;17.00;99.90
20700;DHT22;10511;51.232;9.420;2022-10-23T14:36:20;17.00;99.90
20700;DHT22;10511;51.232;9.420;2022-10-23T14:38:48;17.00;99.90
20700;DHT22;10511;51.232;9.420;2022-10-23T14:41:16;17.00;99.90
20700;DHT22;10511;51.232;9.420;2022-10-23T14:43:43;17.00;99.90
20700;DHT22;10511;51.232;9.420;2022-10-23T14:46:14;17.00;99.90
20700;DHT22;10511;51.232;9.420;2022-10-23T14:48:42;16.90;99.90
20700;DHT22;10511;51.232;9.420;2022-10-23T14:51:16;17.00;99.90
20700;DHT22;10511;51.232;9.420;2022-10-23T14:53:52;17.00;99.90
20700;DHT22;10511;51.232;9.420;2022-10-23T14:56:19;16.90;99.90
20700;DHT22;10511;51.232;9.420;2022-10-23T14:58:46;16.90;99.90
20700;DHT22;10511;51.232;9.420;2022-10-23T15:01:13;16.80;99.90
20700;DHT22;10511;51.232;9.420;2022-10-23T15:03:41;16.80;99.90
20700;DHT22;10511;51.232;9.420;2022-10-23T15:06:09;16.80;99.90
20700;DHT22;10511;51.232;9.420;2022-10-23T15:08:36;16.70;99.90
20700;DHT22;10511;51.232;9.420;2022-10-23T15:11:05;16.70;99.90
20700;DHT22;10511;51.232;9.420;2022-10-23T15:13:32;16.60;99.90
20700;DHT22;10511;51.232;9.420;2022-10-23T15:16:04;16.60;99.90
20700;DHT22;10511;51.232;9.420;2022-10-23T15:18:31;16.50;99.90
20700;DHT22;10511;51.232;9.420;2022-10-23T15:20:59;16.50;99.90
20700;DHT22;10511;51.232;9.420;2022-10-23T15:23:27;16.40;99.90
20700;DHT22;10511;51.232;9.420;2022-10-23T15:25:55;16.40;99.90
20700;DHT22;10511;51.232;9.420;2022-10-23T15:28:24;16.30;99.90
20700;DHT22;10511;51.232;9.420;2022-10-23T15:30:51;16.20;99.90
20700;DHT22;10511;51.232;9.420;2022-10-23T15:33:18;16.10;99.90
20700;DHT22;10511;51.232;9.420;2022-10-23T15:35:46;16.00;99.90
20700;DHT22;10511;51.232;9.420;2022-10-23T15:38:13;16.00;99.90
20700;DHT22;10511;51.232;9.420;2022-10-23T15:40:41;15.90;99.90
20700;DHT22;10511;51.232;9.420;2022-10-23T15:43:10;15.90;99.90
20700;DHT22;10511;51.232;9.420;2022-10-23T15:45:39;15.90;99.90
20700;DHT22;10511;51.232;9.420;2022-10-23T15:48:07;16.00;99.90
20700;DHT22;10511;51.232;9.420;2022-10-23T15:50:34;16.00;99.90
20700;DHT22;10511;51.232;9.420;2022-10-23T15:53:01;16.00;99.90
20700;DHT22;10511;51.232;9.420;2022-10-23T15:55:28;15.90;99.90
20700;DHT22;10511;51.232;9.420;2022-10-23T15:57:55;15.80;99.90
20700;DHT22;10511;51.232;9.420;2022-10-23T16:00:28;15.70;99.90
20700;DHT22;10511;51.232;9.420;2022-10-23T16:02:57;15.70;99.90
20700;DHT22;10511;51.232;9.420;2022-10-23T16:05:24;15.70;99.90